sensor_id;sensor_type;location;lat;lon;timestamp;P1;durP1;ratioP1;P2;durP2;ratioP2
52854;SDS011;38719;51.418;7.286;2023-03-01T00:00:13;16.67;;;9.43;;
52854;SDS011;38719;51.418;7.286;2023-03-01T00:02:41;17.95;;;9.20;;
52854;SDS011;38719;51.418;7.286;2023-03-01T00:05:08;22.17;;;10.45;;
52854;SDS011;38719;51.418;7.286;2023-03-01T00:07:37;13.82;;;8.63;;
52854;SDS011;38719;51.418;7.286;2023-03-01T00:10:05;14.95;;;9.55;;
52854;SDS011;38719;51.418;7.286;2023-03-01T00:12:33;14.90;;;9.10;;
52854;SDS011;38719;51.418;7.286;2023-03-01T00:15:02;16.60;;;10.05;;
52854;SDS011;38719;51.418;7.286;2023-03-01T00:17:31;13.32;;;9.18;;
52854;SDS011;38719;51.418;7.286;2023-03-01T00:19:58;16.88;;;9.88;;
52854;SDS011;38719;51.418;7.286;2023-03-01T00:22:26;12.90;;;9.15;;
52854;SDS011;38719;51.418;7.286;2023-03-01T00:24:56;14.70;;;9.60;;
52854;SDS011;38719;51.418;7.286;2023-03-01T00:27:24;17.25;;;9.73;;
52854;SDS011;38719;51.418;7.286;2023-03-01T00:29:51;13.98;;;9.48;;
52854;SDS011;38719;51.418;7.286;2023-03-01T00:32:19;11.38;;;8.63;;
52854;SDS011;38719;51.418;7.286;2023-03-01T00:34:47;14.35;;;9.35;;
52854;SDS011;38719;51.418;7.286;2023-03-01T00:37:20;18.45;;;9.40;;
52854;SDS011;38719;51.418;7.286;2023-03-01T00:39:47;15.98;;;9.20;;
52854;SDS011;38719;51.418;7.286;2023-03-01T00:42:17;14.15;;;9.27;;
52854;SDS011;38719;51.418;7.286;2023-03-01T00:44:44;15.02;;;9.05;;
52854;SDS011;38719;51.418;7.286;2023-03-01T00:47:12;18.25;;;9.93;;
52854;SDS011;38719;51.418;7.286;2023-03-01T00:49:40;14.45;;;9.98;;
52854;SDS011;38719;51.418;7.286;2023-03-01T00:52:07;20.52;;;10.40;;
52854;SDS011;38719;51.418;7.286;2023-03-01T00:54:34;15.75;;;9.55;;
52854;SDS011;38719;51.418;7.286;2023-03-01T00:57:02;14.13;;;9.05;;
52854;SDS011;38719;51.418;7.286;2023-03-01T00:59:31;17.50;;;10.02;;
52854;SDS011;38719;51.418;7.286;2023-03-01T01:01:59;15.52;;;9.48;;
52854;SDS011;38719;51.418;7.286;2023-03-01T01:04:26;19.35;;;10.32;;
52854;SDS011;38719;51.418;7.286;2023-03-01T01:06:54;18.05;;;10.25;;
52854;SDS011;38719;51.418;7.286;2023-03-01T01:09:21;16.90;;;10.13;;
52854;SDS011;38719;51.418;7.286;2023-03-01T01:11:49;15.50;;;9.57;;
52854;SDS011;38719;51.418;7.286;2023-03-01T01:14:18;16.77;;;10.00;;
52854;SDS011;38719;51.418;7.286;2023-03-01T01:16:47;13.57;;;9.57;;
52854;SDS011;38719;51.418;7.286;2023-03-01T01:19:15;19.25;;;10.18;;
52854;SDS011;38719;51.418;7.286;2023-03-01T01:21:42;17.63;;;10.07;;
52854;SDS011;38719;51.418;7.286;2023-03-01T01:24:11;16.00;;;10.30;;
52854;SDS011;38719;51.418;7.286;2023-03-01T01:26:39;12.85;;;9.32;;
52854;SDS011;38719;51.418;7.286;2023-03-01T01:29:07;17.58;;;9.73;;
52854;SDS011;38719;51.418;7.286;2023-03-01T01:31:36;14.07;;;9.93;;
52854;SDS011;38719;51.418;7.286;2023-03-01T01:34:08;22.88;;;10.52;;
52854;SDS011;38719;51.418;7.286;2023-03-01T01:36:39;18.70;;;10.43;;
52854;SDS011;38719;51.418;7.286;2023-03-01T01:39:06;16.92;;;9.95;;
52854;SDS011;38719;51.418;7.286;2023-03-01T01:41:39;12.88;;;9.95;;
52854;SDS011;38719;51.418;7.286;2023-03-01T01:44:10;16.40;;;10.35;;
52854;SDS011;38719;51.418;7.286;2023-03-01T01:46:41;15.73;;;9.73;;
52854;SDS011;38719;51.418;7.286;2023-03-01T01:49:15;13.57;;;9.75;;
52854;SDS011;38719;51.418;7.286;2023-03-01T01:51:51;12.80;;;9.32;;
52854;SDS011;38719;51.418;7.286;2023-03-01T01:54:25;15.17;;;8.70;;
52854;SDS011;38719;51.418;7.286;2023-03-01T01:56:58;17.92;;;9.27;;
52854;SDS011;38719;51.418;7.286;2023-03-01T01:59:29;16.15;;;10.52;;
52854;SDS011;38719;51.418;7.286;2023-03-01T02:01:59;16.70;;;9.93;;
52854;SDS011;38719;51.418;7.286;2023-03-01T02:04:30;20.92;;;10.60;;
52854;SDS011;38719;51.418;7.286;2023-03-01T02:06:59;17.70;;;9.90;;
52854;SDS011;38719;51.418;7.286;2023-03-01T02:09:30;19.20;;;10.38;;
52854;SDS011;38719;51.418;7.286;2023-03-01T02:11:59;17.75;;;9.60;;
52854;SDS011;38719;51.418;7.286;2023-03-01T02:14:27;17.05;;;10.07;;
52854;SDS011;38719;51.418;7.286;2023-03-01T02:16:55;20.73;;;10.13;;
52854;SDS011;38719;51.418;7.286;2023-03-01T02:19:26;22.17;;;10.70;;
52854;SDS011;38719;51.418;7.286;2023-03-01T02:22:12;17.25;;;10.73;;
52854;SDS011;38719;51.418;7.286;2023-03-01T02:24:49;13.75;;;9.30;;
52854;SDS011;38719;51.418;7.286;2023-03-01T02:27:27;17.55;;;10.02;;
52854;SDS011;38719;51.418;7.286;2023-03-01T02:30:02;16.45;;;10.10;;
52854;SDS011;38719;51.418;7.286;2023-03-01T02:32:29;12.90;;;8.60;;
52854;SDS011;38719;51.418;7.286;2023-03-01T02:34:57;18.23;;;9.80;;
52854;SDS011;38719;51.418;7.286;2023-03-01T02:37:25;14.40;;;10.20;;
52854;SDS011;38719;51.418;7.286;2023-03-01T02:39:54;18.70;;;10.20;;
52854;SDS011;38719;51.418;7.286;2023-03-01T02:42:26;18.52;;;10.25;;
52854;SDS011;38719;51.418;7.286;2023-03-01T02:44:58;16.13;;;9.43;;
52854;SDS011;38719;51.418;7.286;2023-03-01T02:47:27;16.38;;;10.00;;
52854;SDS011;38719;51.418;7.286;2023-03-01T02:49:54;18.75;;;10.18;;
52854;SDS011;38719;51.418;7.286;2023-03-01T02:52:24;20.67;;;10.38;;
52854;SDS011;38719;51.418;7.286;2023-03-01T02:55:00;18.50;;;10.02;;
52854;SDS011;38719;51.418;7.286;2023-03-01T02:57:31;15.25;;;9.95;;
52854;SDS011;38719;51.418;7.286;2023-03-01T03:00:02;18.50;;;9.65;;
52854;SDS011;38719;51.418;7.286;2023-03-01T03:02:35;16.65;;;10.13;;
52854;SDS011;38719;51.418;7.286;2023-03-01T03:05:04;16.73;;;9.95;;
52854;SDS011;38719;51.418;7.286;2023-03-01T03:07:34;17.25;;;10.02;;
52854;SDS011;38719;51.418;7.286;2023-03-01T03:10:03;21.13;;;10.35;;
52854;SDS011;38719;51.418;7.286;2023-03-01T03:12:32;19.17;;;10.02;;
52854;SDS011;38719;51.418;7.286;2023-03-01T03:15:00;16.00;;;9.25;;
52854;SDS011;38719;51.418;7.286;2023-03-01T03:17:36;15.50;;;9.65;;
52854;SDS011;38719;51.418;7.286;2023-03-01T03:20:05;17.05;;;9.07;;
52854;SDS011;38719;51.418;7.286;2023-03-01T03:22:37;18.67;;;10.45;;
52854;SDS011;38719;51.418;7.286;2023-03-01T03:25:06;18.42;;;11.38;;
52854;SDS011;38719;51.418;7.286;2023-03-01T03:27:36;16.77;;;9.63;;
52854;SDS011;38719;51.418;7.286;2023-03-01T03:30:05;23.05;;;12.25;;
52854;SDS011;38719;51.418;7.286;2023-03-01T03:32:36;20.77;;;10.80;;
52854;SDS011;38719;51.418;7.286;2023-03-01T03:35:04;23.10;;;11.07;;
52854;SDS011;38719;51.418;7.286;2023-03-01T03:37:35;17.10;;;10.90;;
52854;SDS011;38719;51.418;7.286;2023-03-01T03:42:48;17.65;;;9.80;;
52854;SDS011;38719;51.418;7.286;2023-03-01T03:45:16;21.80;;;11.38;;
52854;SDS011;38719;51.418;7.286;2023-03-01T03:47:45;16.35;;;10.73;;
52854;SDS011;38719;51.418;7.286;2023-03-01T03:50:14;16.40;;;10.55;;
52854;SDS011;38719;51.418;7.286;2023-03-01T03:52:43;19.70;;;10.40;;
52854;SDS011;38719;51.418;7.286;2023-03-01T03:55:11;19.40;;;11.13;;
52854;SDS011;38719;51.418;7.286;2023-03-01T03:57:39;18.10;;;11.20;;
52854;SDS011;38719;51.418;7.286;2023-03-01T04:00:09;15.93;;;10.98;;
52854;SDS011;38719;51.418;7.286;2023-03-01T04:02:39;16.80;;;9.93;;
52854;SDS011;38719;51.418;7.286;2023-03-01T04:05:08;16.80;;;11.13;;
52854;SDS011;38719;51.418;7.286;2023-03-01T04:07:37;16.45;;;11.07;;
52854;SDS011;38719;51.418;7.286;2023-03-01T04:10:06;15.80;;;9.95;;
52854;SDS011;38719;51.418;7.286;2023-03-01T04:12:36;17.45;;;11.38;;
52854;SDS011;38719;51.418;7.286;2023-03-01T04:15:05;15.70;;;9.48;;
52854;SDS011;38719;51.418;7.286;2023-03-01T04:17:39;18.00;;;10.10;;
52854;SDS011;38719;51.418;7.286;2023-03-01T04:20:09;18.83;;;10.35;;
52854;SDS011;38719;51.418;7.286;2023-03-01T04:22:38;21.15;;;10.65;;
52854;SDS011;38719;51.418;7.286;2023-03-01T04:25:07;18.17;;;11.52;;
52854;SDS011;38719;51.418;7.286;2023-03-01T04:27:40;20.95;;;10.63;;
52854;SDS011;38719;51.418;7.286;2023-03-01T04:30:08;17.92;;;10.20;;
52854;SDS011;38719;51.418;7.286;2023-03-01T04:32:36;21.25;;;10.45;;
52854;SDS011;38719;51.418;7.286;2023-03-01T04:35:04;17.05;;;10.18;;
52854;SDS011;38719;51.418;7.286;2023-03-01T04:37:33;16.85;;;10.20;;
52854;SDS011;38719;51.418;7.286;2023-03-01T04:40:02;20.67;;;10.55;;
52854;SDS011;38719;51.418;7.286;2023-03-01T04:42:38;17.20;;;10.30;;
52854;SDS011;38719;51.418;7.286;2023-03-01T04:45:06;20.13;;;11.15;;
52854;SDS011;38719;51.418;7.286;2023-03-01T04:47:39;19.75;;;12.55;;
52854;SDS011;38719;51.418;7.286;2023-03-01T04:50:09;19.67;;;11.93;;
52854;SDS011;38719;51.418;7.286;2023-03-01T04:52:39;21.30;;;10.85;;
52854;SDS011;38719;51.418;7.286;2023-03-01T04:55:07;16.83;;;10.77;;
52854;SDS011;38719;51.418;7.286;2023-03-01T04:57:35;19.83;;;11.18;;
52854;SDS011;38719;51.418;7.286;2023-03-01T05:00:03;25.05;;;10.13;;
52854;SDS011;38719;51.418;7.286;2023-03-01T05:02:50;14.38;;;10.07;;
52854;SDS011;38719;51.418;7.286;2023-03-01T05:05:21;21.55;;;10.32;;
52854;SDS011;38719;51.418;7.286;2023-03-01T05:07:54;14.00;;;9.98;;
52854;SDS011;38719;51.418;7.286;2023-03-01T05:10:22;21.45;;;10.77;;
52854;SDS011;38719;51.418;7.286;2023-03-01T05:12:50;23.52;;;11.73;;
52854;SDS011;38719;51.418;7.286;2023-03-01T05:15:19;21.38;;;11.13;;
52854;SDS011;38719;51.418;7.286;2023-03-01T05:17:48;19.27;;;10.50;;
52854;SDS011;38719;51.418;7.286;2023-03-01T05:20:15;20.38;;;10.88;;
52854;SDS011;38719;51.418;7.286;2023-03-01T05:22:43;20.10;;;10.82;;
52854;SDS011;38719;51.418;7.286;2023-03-01T05:25:12;18.38;;;10.70;;
52854;SDS011;38719;51.418;7.286;2023-03-01T05:27:40;17.85;;;10.18;;
52854;SDS011;38719;51.418;7.286;2023-03-01T05:30:08;19.65;;;11.18;;
52854;SDS011;38719;51.418;7.286;2023-03-01T05:32:40;19.85;;;11.02;;
52854;SDS011;38719;51.418;7.286;2023-03-01T05:35:11;18.77;;;10.77;;
52854;SDS011;38719;51.418;7.286;2023-03-01T05:37:40;28.73;;;11.90;;
52854;SDS011;38719;51.418;7.286;2023-03-01T05:40:09;20.92;;;10.73;;
52854;SDS011;38719;51.418;7.286;2023-03-01T05:42:43;20.08;;;11.60;;
52854;SDS011;38719;51.418;7.286;2023-03-01T05:45:12;15.82;;;10.52;;
52854;SDS011;38719;51.418;7.286;2023-03-01T05:47:41;17.33;;;10.60;;
52854;SDS011;38719;51.418;7.286;2023-03-01T05:50:13;15.80;;;10.20;;
52854;SDS011;38719;51.418;7.286;2023-03-01T05:52:45;17.73;;;10.43;;
52854;SDS011;38719;51.418;7.286;2023-03-01T05:55:16;16.42;;;10.48;;
52854;SDS011;38719;51.418;7.286;2023-03-01T05:57:44;20.10;;;9.98;;
52854;SDS011;38719;51.418;7.286;2023-03-01T06:00:12;22.02;;;10.93;;
52854;SDS011;38719;51.418;7.286;2023-03-01T06:02:41;20.20;;;10.15;;
52854;SDS011;38719;51.418;7.286;2023-03-01T06:05:09;21.83;;;10.13;;
52854;SDS011;38719;51.418;7.286;2023-03-01T06:07:38;20.08;;;11.00;;
52854;SDS011;38719;51.418;7.286;2023-03-01T06:10:06;19.90;;;10.77;;
52854;SDS011;38719;51.418;7.286;2023-03-01T06:12:37;18.17;;;11.05;;
52854;SDS011;38719;51.418;7.286;2023-03-01T06:15:06;21.48;;;11.35;;
52854;SDS011;38719;51.418;7.286;2023-03-01T06:17:36;15.48;;;10.32;;
52854;SDS011;38719;51.418;7.286;2023-03-01T06:20:05;20.80;;;11.30;;
52854;SDS011;38719;51.418;7.286;2023-03-01T06:22:35;21.23;;;11.02;;
52854;SDS011;38719;51.418;7.286;2023-03-01T06:25:03;17.65;;;10.63;;
52854;SDS011;38719;51.418;7.286;2023-03-01T06:27:32;24.33;;;10.88;;
52854;SDS011;38719;51.418;7.286;2023-03-01T06:30:01;16.38;;;10.82;;
52854;SDS011;38719;51.418;7.286;2023-03-01T06:32:28;22.60;;;10.48;;
52854;SDS011;38719;51.418;7.286;2023-03-01T06:34:56;21.35;;;11.30;;
52854;SDS011;38719;51.418;7.286;2023-03-01T06:37:24;23.50;;;11.10;;
52854;SDS011;38719;51.418;7.286;2023-03-01T06:39:51;22.83;;;12.05;;
52854;SDS011;38719;51.418;7.286;2023-03-01T06:42:19;19.13;;;10.02;;
52854;SDS011;38719;51.418;7.286;2023-03-01T06:44:46;18.60;;;10.57;;
52854;SDS011;38719;51.418;7.286;2023-03-01T06:47:15;24.65;;;11.00;;
52854;SDS011;38719;51.418;7.286;2023-03-01T06:49:43;20.25;;;10.45;;
52854;SDS011;38719;51.418;7.286;2023-03-01T06:52:10;21.65;;;10.30;;
52854;SDS011;38719;51.418;7.286;2023-03-01T06:54:38;16.50;;;10.60;;
52854;SDS011;38719;51.418;7.286;2023-03-01T06:57:05;17.85;;;9.95;;
52854;SDS011;38719;51.418;7.286;2023-03-01T06:59:32;16.40;;;9.63;;
52854;SDS011;38719;51.418;7.286;2023-03-01T07:02:00;15.73;;;8.88;;
52854;SDS011;38719;51.418;7.286;2023-03-01T07:04:29;13.77;;;9.20;;
52854;SDS011;38719;51.418;7.286;2023-03-01T07:06:56;17.95;;;9.68;;
52854;SDS011;38719;51.418;7.286;2023-03-01T07:09:24;15.15;;;9.98;;
52854;SDS011;38719;51.418;7.286;2023-03-01T07:11:52;14.82;;;8.82;;
52854;SDS011;38719;51.418;7.286;2023-03-01T07:14:19;16.98;;;9.57;;
52854;SDS011;38719;51.418;7.286;2023-03-01T07:16:47;13.40;;;9.48;;
52854;SDS011;38719;51.418;7.286;2023-03-01T07:19:14;17.50;;;9.30;;
52854;SDS011;38719;51.418;7.286;2023-03-01T07:21:43;20.00;;;9.60;;
52854;SDS011;38719;51.418;7.286;2023-03-01T07:24:11;18.48;;;9.43;;
52854;SDS011;38719;51.418;7.286;2023-03-01T07:26:38;16.90;;;9.25;;
52854;SDS011;38719;51.418;7.286;2023-03-01T07:29:07;17.25;;;9.82;;
52854;SDS011;38719;51.418;7.286;2023-03-01T07:31:36;16.30;;;9.68;;
52854;SDS011;38719;51.418;7.286;2023-03-01T07:34:03;16.92;;;9.57;;
52854;SDS011;38719;51.418;7.286;2023-03-01T07:36:31;18.00;;;10.30;;
52854;SDS011;38719;51.418;7.286;2023-03-01T07:39:00;17.20;;;9.82;;
52854;SDS011;38719;51.418;7.286;2023-03-01T07:41:29;17.73;;;9.98;;
52854;SDS011;38719;51.418;7.286;2023-03-01T07:43:56;16.48;;;10.02;;
52854;SDS011;38719;51.418;7.286;2023-03-01T07:46:24;14.32;;;9.23;;
52854;SDS011;38719;51.418;7.286;2023-03-01T07:48:51;16.17;;;10.00;;
52854;SDS011;38719;51.418;7.286;2023-03-01T07:51:19;17.63;;;9.93;;
52854;SDS011;38719;51.418;7.286;2023-03-01T07:53:47;23.38;;;10.60;;
52854;SDS011;38719;51.418;7.286;2023-03-01T07:56:16;25.60;;;11.73;;
52854;SDS011;38719;51.418;7.286;2023-03-01T07:58:45;22.40;;;12.18;;
52854;SDS011;38719;51.418;7.286;2023-03-01T08:01:16;24.63;;;11.18;;
52854;SDS011;38719;51.418;7.286;2023-03-01T08:03:45;18.25;;;10.68;;
52854;SDS011;38719;51.418;7.286;2023-03-01T08:06:13;18.30;;;10.57;;
52854;SDS011;38719;51.418;7.286;2023-03-01T08:08:42;26.85;;;12.23;;
52854;SDS011;38719;51.418;7.286;2023-03-01T08:11:11;19.90;;;11.40;;
52854;SDS011;38719;51.418;7.286;2023-03-01T08:13:41;20.65;;;12.75;;
52854;SDS011;38719;51.418;7.286;2023-03-01T08:16:10;23.05;;;12.95;;
52854;SDS011;38719;51.418;7.286;2023-03-01T08:18:39;23.00;;;11.63;;
52854;SDS011;38719;51.418;7.286;2023-03-01T08:21:07;20.80;;;10.93;;
52854;SDS011;38719;51.418;7.286;2023-03-01T08:23:36;24.85;;;10.60;;
52854;SDS011;38719;51.418;7.286;2023-03-01T08:26:07;18.85;;;10.57;;
52854;SDS011;38719;51.418;7.286;2023-03-01T08:28:35;16.27;;;10.38;;
52854;SDS011;38719;51.418;7.286;2023-03-01T08:31:12;21.25;;;10.75;;
52854;SDS011;38719;51.418;7.286;2023-03-01T08:33:41;19.90;;;10.23;;
52854;SDS011;38719;51.418;7.286;2023-03-01T08:36:09;31.08;;;12.45;;
52854;SDS011;38719;51.418;7.286;2023-03-01T08:38:36;24.63;;;11.63;;
52854;SDS011;38719;51.418;7.286;2023-03-01T08:41:04;22.90;;;11.38;;
52854;SDS011;38719;51.418;7.286;2023-03-01T08:43:31;23.27;;;10.75;;
52854;SDS011;38719;51.418;7.286;2023-03-01T08:45:59;23.55;;;11.05;;
52854;SDS011;38719;51.418;7.286;2023-03-01T08:48:28;24.95;;;11.25;;
52854;SDS011;38719;51.418;7.286;2023-03-01T08:50:56;17.45;;;9.77;;
52854;SDS011;38719;51.418;7.286;2023-03-01T08:53:23;24.50;;;10.32;;
52854;SDS011;38719;51.418;7.286;2023-03-01T08:55:51;16.77;;;10.25;;
52854;SDS011;38719;51.418;7.286;2023-03-01T08:58:19;19.88;;;9.63;;
52854;SDS011;38719;51.418;7.286;2023-03-01T09:00:46;21.35;;;10.35;;
52854;SDS011;38719;51.418;7.286;2023-03-01T09:03:14;19.95;;;9.57;;
52854;SDS011;38719;51.418;7.286;2023-03-01T09:05:42;22.88;;;10.65;;
52854;SDS011;38719;51.418;7.286;2023-03-01T09:08:11;27.02;;;9.82;;
52854;SDS011;38719;51.418;7.286;2023-03-01T09:10:39;15.93;;;8.57;;
52854;SDS011;38719;51.418;7.286;2023-03-01T09:13:07;13.68;;;8.30;;
52854;SDS011;38719;51.418;7.286;2023-03-01T09:15:36;16.20;;;8.70;;
52854;SDS011;38719;51.418;7.286;2023-03-01T09:18:04;15.00;;;8.18;;
52854;SDS011;38719;51.418;7.286;2023-03-01T09:20:31;17.67;;;7.95;;
52854;SDS011;38719;51.418;7.286;2023-03-01T09:23:01;15.20;;;8.30;;
52854;SDS011;38719;51.418;7.286;2023-03-01T09:25:28;15.50;;;7.40;;
52854;SDS011;38719;51.418;7.286;2023-03-01T09:27:56;11.63;;;7.15;;
52854;SDS011;38719;51.418;7.286;2023-03-01T09:30:24;16.90;;;8.02;;
52854;SDS011;38719;51.418;7.286;2023-03-01T09:32:51;11.00;;;7.50;;
52854;SDS011;38719;51.418;7.286;2023-03-01T09:35:19;11.18;;;6.65;;
52854;SDS011;38719;51.418;7.286;2023-03-01T09:37:48;12.98;;;7.60;;
52854;SDS011;38719;51.418;7.286;2023-03-01T09:40:19;9.95;;;7.00;;
52854;SDS011;38719;51.418;7.286;2023-03-01T09:42:51;11.95;;;7.40;;
52854;SDS011;38719;51.418;7.286;2023-03-01T09:45:26;12.50;;;7.80;;
52854;SDS011;38719;51.418;7.286;2023-03-01T09:47:56;12.40;;;7.27;;
52854;SDS011;38719;51.418;7.286;2023-03-01T09:50:24;13.40;;;7.20;;
52854;SDS011;38719;51.418;7.286;2023-03-01T09:52:59;9.82;;;6.95;;
52854;SDS011;38719;51.418;7.286;2023-03-01T09:55:31;15.18;;;7.40;;
52854;SDS011;38719;51.418;7.286;2023-03-01T09:58:06;14.77;;;7.55;;
52854;SDS011;38719;51.418;7.286;2023-03-01T10:00:52;11.95;;;6.65;;
52854;SDS011;38719;51.418;7.286;2023-03-01T10:03:24;12.25;;;6.88;;
52854;SDS011;38719;51.418;7.286;2023-03-01T10:05:56;23.05;;;6.45;;
52854;SDS011;38719;51.418;7.286;2023-03-01T10:08:31;11.20;;;7.18;;
52854;SDS011;38719;51.418;7.286;2023-03-01T10:11:17;15.80;;;7.53;;
52854;SDS011;38719;51.418;7.286;2023-03-01T10:13:52;12.30;;;7.40;;
52854;SDS011;38719;51.418;7.286;2023-03-01T10:16:26;13.07;;;7.07;;
52854;SDS011;38719;51.418;7.286;2023-03-01T10:19:10;12.75;;;6.45;;
52854;SDS011;38719;51.418;7.286;2023-03-01T10:21:43;14.35;;;7.40;;
52854;SDS011;38719;51.418;7.286;2023-03-01T10:24:13;10.02;;;6.78;;
52854;SDS011;38719;51.418;7.286;2023-03-01T10:26:47;13.70;;;7.45;;
52854;SDS011;38719;51.418;7.286;2023-03-01T10:29:21;10.50;;;6.63;;
52854;SDS011;38719;51.418;7.286;2023-03-01T10:31:52;11.35;;;6.55;;
52854;SDS011;38719;51.418;7.286;2023-03-01T10:34:22;13.25;;;6.80;;
52854;SDS011;38719;51.418;7.286;2023-03-01T10:36:55;9.25;;;5.95;;
52854;SDS011;38719;51.418;7.286;2023-03-01T10:39:25;10.65;;;6.43;;
52854;SDS011;38719;51.418;7.286;2023-03-01T10:41:55;12.20;;;6.88;;
52854;SDS011;38719;51.418;7.286;2023-03-01T10:44:39;12.05;;;6.53;;
52854;SDS011;38719;51.418;7.286;2023-03-01T10:47:13;10.50;;;6.93;;
52854;SDS011;38719;51.418;7.286;2023-03-01T10:49:51;16.65;;;6.10;;
52854;SDS011;38719;51.418;7.286;2023-03-01T10:52:21;12.13;;;7.45;;
52854;SDS011;38719;51.418;7.286;2023-03-01T10:54:52;13.63;;;6.65;;
52854;SDS011;38719;51.418;7.286;2023-03-01T10:57:27;13.25;;;7.10;;
52854;SDS011;38719;51.418;7.286;2023-03-01T11:00:00;12.90;;;6.80;;
52854;SDS011;38719;51.418;7.286;2023-03-01T11:02:42;10.65;;;6.65;;
52854;SDS011;38719;51.418;7.286;2023-03-01T11:05:16;12.25;;;7.05;;
52854;SDS011;38719;51.418;7.286;2023-03-01T11:07:46;12.65;;;7.30;;
52854;SDS011;38719;51.418;7.286;2023-03-01T11:10:16;11.93;;;7.13;;
52854;SDS011;38719;51.418;7.286;2023-03-01T11:12:46;12.77;;;7.13;;
52854;SDS011;38719;51.418;7.286;2023-03-01T11:15:21;13.90;;;7.25;;
52854;SDS011;38719;51.418;7.286;2023-03-01T11:17:51;12.63;;;6.55;;
52854;SDS011;38719;51.418;7.286;2023-03-01T11:20:35;13.10;;;6.60;;
52854;SDS011;38719;51.418;7.286;2023-03-01T11:23:04;12.60;;;7.10;;
52854;SDS011;38719;51.418;7.286;2023-03-01T11:25:38;14.05;;;7.10;;
52854;SDS011;38719;51.418;7.286;2023-03-01T11:28:12;10.90;;;7.53;;
52854;SDS011;38719;51.418;7.286;2023-03-01T11:30:44;11.48;;;7.18;;
52854;SDS011;38719;51.418;7.286;2023-03-01T11:33:34;11.18;;;6.60;;
52854;SDS011;38719;51.418;7.286;2023-03-01T11:36:10;13.27;;;7.75;;
52854;SDS011;38719;51.418;7.286;2023-03-01T11:38:47;12.38;;;7.18;;
52854;SDS011;38719;51.418;7.286;2023-03-01T11:41:16;13.35;;;6.68;;
52854;SDS011;38719;51.418;7.286;2023-03-01T11:43:49;11.82;;;6.88;;
52854;SDS011;38719;51.418;7.286;2023-03-01T11:46:33;12.02;;;7.65;;
52854;SDS011;38719;51.418;7.286;2023-03-01T11:49:22;12.95;;;7.20;;
52854;SDS011;38719;51.418;7.286;2023-03-01T11:52:05;15.07;;;7.53;;
52854;SDS011;38719;51.418;7.286;2023-03-01T11:54:45;13.68;;;8.23;;
52854;SDS011;38719;51.418;7.286;2023-03-01T11:57:26;14.65;;;7.53;;
52854;SDS011;38719;51.418;7.286;2023-03-01T12:00:21;15.15;;;7.53;;
52854;SDS011;38719;51.418;7.286;2023-03-01T12:03:13;12.82;;;7.40;;
52854;SDS011;38719;51.418;7.286;2023-03-01T12:06:12;12.55;;;7.03;;
52854;SDS011;38719;51.418;7.286;2023-03-01T12:09:07;11.07;;;6.85;;
52854;SDS011;38719;51.418;7.286;2023-03-01T12:11:55;14.77;;;7.40;;
52854;SDS011;38719;51.418;7.286;2023-03-01T12:17:35;11.55;;;7.32;;
52854;SDS011;38719;51.418;7.286;2023-03-01T12:20:18;13.43;;;6.65;;
52854;SDS011;38719;51.418;7.286;2023-03-01T12:22:58;18.48;;;7.15;;
52854;SDS011;38719;51.418;7.286;2023-03-01T12:25:55;10.30;;;6.55;;
52854;SDS011;38719;51.418;7.286;2023-03-01T12:28:35;13.82;;;7.32;;
52854;SDS011;38719;51.418;7.286;2023-03-01T12:31:31;13.13;;;7.50;;
52854;SDS011;38719;51.418;7.286;2023-03-01T12:34:14;12.68;;;7.35;;
52854;SDS011;38719;51.418;7.286;2023-03-01T12:37:00;13.75;;;8.25;;
52854;SDS011;38719;51.418;7.286;2023-03-01T12:39:42;10.88;;;7.15;;
52854;SDS011;38719;51.418;7.286;2023-03-01T12:42:26;11.80;;;6.88;;
52854;SDS011;38719;51.418;7.286;2023-03-01T12:45:02;10.65;;;6.95;;
52854;SDS011;38719;51.418;7.286;2023-03-01T12:47:58;11.75;;;6.53;;
52854;SDS011;38719;51.418;7.286;2023-03-01T12:50:44;11.85;;;7.30;;
52854;SDS011;38719;51.418;7.286;2023-03-01T12:53:19;13.38;;;7.55;;
52854;SDS011;38719;51.418;7.286;2023-03-01T12:55:51;13.90;;;7.90;;
52854;SDS011;38719;51.418;7.286;2023-03-01T12:58:23;12.43;;;6.60;;
52854;SDS011;38719;51.418;7.286;2023-03-01T13:01:16;11.30;;;7.00;;
52854;SDS011;38719;51.418;7.286;2023-03-01T13:04:05;9.63;;;6.90;;
52854;SDS011;38719;51.418;7.286;2023-03-01T13:06:42;15.35;;;7.60;;
52854;SDS011;38719;51.418;7.286;2023-03-01T13:09:20;14.98;;;7.07;;
52854;SDS011;38719;51.418;7.286;2023-03-01T13:11:57;17.48;;;6.68;;
52854;SDS011;38719;51.418;7.286;2023-03-01T13:14:45;13.00;;;6.78;;
52854;SDS011;38719;51.418;7.286;2023-03-01T13:17:29;13.50;;;6.60;;
52854;SDS011;38719;51.418;7.286;2023-03-01T13:20:11;12.82;;;6.57;;
52854;SDS011;38719;51.418;7.286;2023-03-01T13:22:42;12.70;;;7.03;;
52854;SDS011;38719;51.418;7.286;2023-03-01T13:25:20;15.65;;;7.55;;
52854;SDS011;38719;51.418;7.286;2023-03-01T13:27:52;14.65;;;7.22;;
52854;SDS011;38719;51.418;7.286;2023-03-01T13:31:10;13.70;;;6.88;;
52854;SDS011;38719;51.418;7.286;2023-03-01T13:33:59;12.60;;;7.22;;
52854;SDS011;38719;51.418;7.286;2023-03-01T13:39:38;13.77;;;7.32;;
52854;SDS011;38719;51.418;7.286;2023-03-01T13:44:57;9.57;;;6.85;;
52854;SDS011;38719;51.418;7.286;2023-03-01T13:47:25;10.20;;;7.00;;
52854;SDS011;38719;51.418;7.286;2023-03-01T13:49:56;9.80;;;6.47;;
52854;SDS011;38719;51.418;7.286;2023-03-01T13:52:35;10.98;;;6.30;;
52854;SDS011;38719;51.418;7.286;2023-03-01T13:55:14;9.77;;;6.75;;
52854;SDS011;38719;51.418;7.286;2023-03-01T13:57:46;10.18;;;6.28;;
52854;SDS011;38719;51.418;7.286;2023-03-01T14:00:26;15.70;;;7.25;;
52854;SDS011;38719;51.418;7.286;2023-03-01T14:03:00;13.10;;;6.95;;
52854;SDS011;38719;51.418;7.286;2023-03-01T14:05:33;17.38;;;7.20;;
52854;SDS011;38719;51.418;7.286;2023-03-01T14:08:02;22.75;;;6.97;;
52854;SDS011;38719;51.418;7.286;2023-03-01T14:10:31;12.68;;;6.85;;
52854;SDS011;38719;51.418;7.286;2023-03-01T14:13:10;25.05;;;6.90;;
52854;SDS011;38719;51.418;7.286;2023-03-01T14:15:54;10.82;;;6.40;;
52854;SDS011;38719;51.418;7.286;2023-03-01T14:18:35;14.85;;;7.38;;
52854;SDS011;38719;51.418;7.286;2023-03-01T14:23:40;11.38;;;6.32;;
52854;SDS011;38719;51.418;7.286;2023-03-01T14:26:09;8.20;;;5.85;;
52854;SDS011;38719;51.418;7.286;2023-03-01T14:28:38;11.27;;;6.70;;
52854;SDS011;38719;51.418;7.286;2023-03-01T14:34:19;10.45;;;6.30;;
52854;SDS011;38719;51.418;7.286;2023-03-01T14:36:49;13.82;;;6.13;;
52854;SDS011;38719;51.418;7.286;2023-03-01T14:39:18;10.82;;;6.05;;
52854;SDS011;38719;51.418;7.286;2023-03-01T14:41:47;18.95;;;6.45;;
52854;SDS011;38719;51.418;7.286;2023-03-01T14:44:16;10.75;;;6.05;;
52854;SDS011;38719;51.418;7.286;2023-03-01T14:46:51;24.65;;;6.28;;
52854;SDS011;38719;51.418;7.286;2023-03-01T14:49:21;9.50;;;5.93;;
52854;SDS011;38719;51.418;7.286;2023-03-01T14:51:53;11.73;;;5.85;;
52854;SDS011;38719;51.418;7.286;2023-03-01T14:54:24;15.00;;;6.10;;
52854;SDS011;38719;51.418;7.286;2023-03-01T14:56:54;11.93;;;5.97;;
52854;SDS011;38719;51.418;7.286;2023-03-01T14:59:26;7.72;;;5.18;;
52854;SDS011;38719;51.418;7.286;2023-03-01T15:01:54;8.82;;;5.43;;
52854;SDS011;38719;51.418;7.286;2023-03-01T15:04:24;10.50;;;6.00;;
52854;SDS011;38719;51.418;7.286;2023-03-01T15:06:55;10.38;;;6.30;;
52854;SDS011;38719;51.418;7.286;2023-03-01T15:09:31;10.27;;;6.22;;
52854;SDS011;38719;51.418;7.286;2023-03-01T15:18:01;8.52;;;6.13;;
52854;SDS011;38719;51.418;7.286;2023-03-01T15:20:31;9.50;;;6.07;;